ADDS METAR Data

Data at: 0534 UTC 19 Jan 2018

METAR for:KLEW (Auburn-Lewiston Muni, ME, US)
Text:KLEW 190456Z AUTO 00000KT 10SM CLR M14/M16 A2989 RMK AO2 SLP138 T11391156 FZRANO
Temperature:-13.9°C ( 7°F)
Dewpoint:-15.6°C ( 4°F) [RH = 87%]
Pressure (altimeter):29.89 inches Hg (1012.3 mb) [Sea level pressure: 1013.8 mb]
Winds:calm
Visibility:10 or more sm (16+ km)
Ceiling:at least 12,000 feet AGL
Clouds:sky clear below 12,000 feet AGL
QC Flag:automated observation with no human augmentation